Time;durP1;ratioP1;P1;durP2;ratioP2;P2;SDS_P1;SDS_P2;PMS_P1;PMS_P2;Temp;Humidity;BMP_temperature;BMP_pressure;BME280_temperature;BME280_humidity;BME280_pressure;Samples;Min_cycle;Max_cycle;Signal;HPM_P1;HPM_P2
2021/11/16 06:26:06;;;;;;;19.45;10.38;;;;;;;;;;5228843;23;20346;-66
2021/11/16 06:28:33;;;;;;;20.20;9.55;;;;;;;;;;4914878;29;20028;-69
2021/11/16 06:30:59;;;;;;;21.00;10.00;;;;;;;;;;4912985;29;20444;-70
2021/11/16 06:33:26;;;;;;;22.85;10.02;;;;;;;;;;4914510;29;20028;-66
2021/11/16 06:35:52;;;;;;;23.33;9.98;;;;;;;;;;4914573;29;20111;-68
2021/11/16 06:38:19;;;;;;;18.35;9.95;;;;;;;;;;4905387;29;20103;-68
2021/11/16 06:40:48;;;;;;;24.10;9.43;;;;;;;;;;4905353;29;20032;-68
2021/11/16 06:43:21;;;;;;;20.17;9.48;;;;;;;;;;4904388;29;20080;-69
2021/11/16 06:45:51;;;;;;;21.38;9.60;;;;;;;;;;4904803;29;20464;-69
2021/11/16 06:48:17;;;;;;;19.75;9.00;;;;;;;;;;4902560;29;20040;-70
2021/11/16 06:50:44;;;;;;;24.83;10.60;;;;;;;;;;4902899;29;20185;-69
2021/11/16 06:53:10;;;;;;;16.85;9.73;;;;;;;;;;4904913;29;20071;-68
2021/11/16 06:55:36;;;;;;;32.40;14.95;;;;;;;;;;4903433;29;20503;-68
2021/11/16 06:58:02;;;;;;;25.80;12.48;;;;;;;;;;4901827;29;20488;-66
2021/11/16 07:00:32;;;;;;;19.92;11.35;;;;;;;;;;4904431;29;20028;-65
2021/11/16 07:02:59;;;;;;;17.88;9.88;;;;;;;;;;4902590;29;20067;-69
2021/11/16 07:05:25;;;;;;;17.85;9.73;;;;;;;;;;4902894;29;20028;-68
2021/11/16 07:07:51;;;;;;;18.55;9.43;;;;;;;;;;4908293;29;20392;-68
2021/11/16 07:10:25;;;;;;;20.23;9.38;;;;;;;;;;4914359;29;20040;-69
2021/11/16 07:12:51;;;;;;;17.90;10.07;;;;;;;;;;4908358;29;20020;-70
2021/11/16 07:15:21;;;;;;;21.40;10.25;;;;;;;;;;4907188;29;20037;-66
2021/11/16 07:17:47;;;;;;;21.45;10.23;;;;;;;;;;4906404;29;20527;-66
2021/11/16 07:20:13;;;;;;;21.92;10.15;;;;;;;;;;4907963;29;20110;-67
2021/11/16 07:22:40;;;;;;;18.08;9.20;;;;;;;;;;4910551;29;20108;-65
2021/11/16 07:25:11;;;;;;;18.38;8.88;;;;;;;;;;4906375;29;20036;-65
2021/11/16 07:27:37;;;;;;;17.27;8.50;;;;;;;;;;4888454;29;20051;-66
2021/11/16 07:30:08;;;;;;;19.13;9.55;;;;;;;;;;4888124;29;20033;-66
2021/11/16 07:32:49;;;;;;;22.50;9.00;;;;;;;;;;4885982;29;20496;-64
2021/11/16 07:35:17;;;;;;;21.67;9.60;;;;;;;;;;4884148;29;20044;-66
2021/11/16 07:37:44;;;;;;;20.17;8.63;;;;;;;;;;4886325;29;20101;-66
2021/11/16 07:40:11;;;;;;;14.98;8.98;;;;;;;;;;4890110;29;20028;-67
2021/11/16 07:43:06;;;;;;;17.50;7.93;;;;;;;;;;4888617;29;20425;-65
2021/11/16 07:45:37;;;;;;;52.38;19.67;;;;;;;;;;4884112;29;20096;-68
2021/11/16 07:48:06;;;;;;;26.52;11.20;;;;;;;;;;4885917;29;20032;-68
2021/11/16 07:50:32;;;;;;;113.88;39.80;;;;;;;;;;4883888;29;20053;-64
2021/11/16 07:53:07;;;;;;;21.65;9.40;;;;;;;;;;4881531;29;20522;-68
2021/11/16 07:55:33;;;;;;;41.35;15.57;;;;;;;;;;4883189;29;20060;-67
2021/11/16 07:58:03;;;;;;;186.27;68.07;;;;;;;;;;4884928;29;20071;-67
2021/11/16 08:00:30;;;;;;;218.75;81.38;;;;;;;;;;4882546;29;20051;-66
2021/11/16 08:03:05;;;;;;;18.60;10.63;;;;;;;;;;4885936;29;20064;-65
2021/11/16 08:08:19;;;;;;;224.20;92.20;;;;;;;;;;4879201;29;20036;-67
2021/11/16 08:10:49;;;;;;;120.90;50.65;;;;;;;;;;4888919;29;20109;-71
2021/11/16 08:13:16;;;;;;;49.45;22.30;;;;;;;;;;4881183;29;20032;-71
2021/11/16 08:15:45;;;;;;;46.88;22.02;;;;;;;;;;4886145;29;20220;-67
2021/11/16 08:18:14;;;;;;;17.20;9.27;;;;;;;;;;4887707;29;20088;-68
2021/11/16 08:20:41;;;;;;;136.85;55.97;;;;;;;;;;4884363;29;20036;-68
2021/11/16 08:23:08;;;;;;;15.55;9.30;;;;;;;;;;4888362;29;20048;-67
2021/11/16 08:25:34;;;;;;;60.63;27.48;;;;;;;;;;4886137;29;20381;-68
2021/11/16 08:28:02;;;;;;;76.00;32.65;;;;;;;;;;4891621;29;20032;-68
2021/11/16 08:30:29;;;;;;;52.38;22.83;;;;;;;;;;4884829;29;20404;-67
2021/11/16 08:32:59;;;;;;;71.20;31.63;;;;;;;;;;4878596;29;20025;-68
2021/11/16 08:35:25;;;;;;;56.30;23.80;;;;;;;;;;4883847;29;20032;-67
2021/11/16 08:37:57;;;;;;;20.73;10.85;;;;;;;;;;4886203;29;20021;-66
2021/11/16 08:40:24;;;;;;;15.40;7.57;;;;;;;;;;4885071;29;20386;-66
2021/11/16 08:42:56;;;;;;;29.00;15.02;;;;;;;;;;4893311;29;20032;-68
2021/11/16 08:45:30;;;;;;;17.33;9.68;;;;;;;;;;4891697;29;20144;-67
2021/11/16 08:47:58;;;;;;;15.10;9.48;;;;;;;;;;4886328;29;20108;-67
2021/11/16 08:50:29;;;;;;;17.17;9.88;;;;;;;;;;4887915;29;20067;-66
2021/11/16 08:52:56;;;;;;;17.83;9.32;;;;;;;;;;4887392;29;20481;-65
2021/11/16 08:55:28;;;;;;;21.33;10.88;;;;;;;;;;4885673;29;20048;-69
2021/11/16 08:57:54;;;;;;;17.15;9.75;;;;;;;;;;4886334;29;20066;-67
2021/11/16 09:00:22;;;;;;;36.70;17.63;;;;;;;;;;4886738;29;20036;-66
2021/11/16 09:02:49;;;;;;;24.35;10.57;;;;;;;;;;4888123;29;20392;-66
2021/11/16 09:05:19;;;;;;;18.20;9.95;;;;;;;;;;4887633;29;20165;-68
2021/11/16 09:07:49;;;;;;;29.55;14.07;;;;;;;;;;4890654;29;20092;-67
2021/11/16 09:10:15;;;;;;;22.55;9.90;;;;;;;;;;4883135;29;20044;-68
2021/11/16 09:12:49;;;;;;;23.30;10.30;;;;;;;;;;4885150;29;20031;-65
2021/11/16 09:17:49;;;;;;;18.38;9.75;;;;;;;;;;4891388;29;20485;-66
2021/11/16 09:20:19;;;;;;;23.52;11.27;;;;;;;;;;4887849;29;20033;-66
2021/11/16 09:22:46;;;;;;;17.35;9.45;;;;;;;;;;4885790;29;20120;-67
2021/11/16 09:25:30;;;;;;;20.13;10.25;;;;;;;;;;4886331;29;20432;-65
2021/11/16 09:28:13;;;;;;;22.30;10.50;;;;;;;;;;4884843;29;20352;-64
2021/11/16 09:30:43;;;;;;;18.30;10.55;;;;;;;;;;4887276;29;20552;-65
2021/11/16 09:33:16;;;;;;;19.38;9.48;;;;;;;;;;4886288;29;20018;-65
2021/11/16 09:35:43;;;;;;;19.08;9.75;;;;;;;;;;4885584;29;20037;-65
2021/11/16 09:38:09;;;;;;;17.15;9.95;;;;;;;;;;4884054;29;20129;-67
2021/11/16 09:40:37;;;;;;;17.13;10.55;;;;;;;;;;4884942;29;20025;-66
2021/11/16 09:43:04;;;;;;;17.23;9.95;;;;;;;;;;4885023;29;20029;-67
2021/11/16 09:45:33;;;;;;;19.38;10.07;;;;;;;;;;4883748;29;20028;-64
2021/11/16 09:48:01;;;;;;;18.95;10.65;;;;;;;;;;4881712;29;20165;-66
2021/11/16 09:50:28;;;;;;;18.77;11.38;;;;;;;;;;4885221;29;20119;-65
2021/11/16 09:52:55;;;;;;;18.55;10.23;;;;;;;;;;4879111;29;20036;-66
2021/11/16 09:55:21;;;;;;;21.42;10.80;;;;;;;;;;4881601;29;20037;-64
2021/11/16 09:57:51;;;;;;;19.42;11.05;;;;;;;;;;4885063;29;20029;-66
2021/11/16 10:00:20;;;;;;;21.02;11.23;;;;;;;;;;4885418;29;20028;-64
2021/11/16 10:02:56;;;;;;;17.50;10.45;;;;;;;;;;4886645;29;20021;-65
2021/11/16 10:05:26;;;;;;;18.42;10.52;;;;;;;;;;4886556;29;20028;-65
2021/11/16 10:07:53;;;;;;;25.80;9.80;;;;;;;;;;4885282;29;20465;-63
2021/11/16 10:10:20;;;;;;;18.10;10.27;;;;;;;;;;4878581;29;20108;-64
2021/11/16 10:12:52;;;;;;;17.00;9.95;;;;;;;;;;4885609;29;20106;-64
2021/11/16 10:15:19;;;;;;;22.45;10.52;;;;;;;;;;4884337;29;20100;-66
2021/11/16 10:17:47;;;;;;;18.00;10.40;;;;;;;;;;4886435;29;20025;-67
2021/11/16 10:20:13;;;;;;;21.60;11.80;;;;;;;;;;4884414;29;20028;-65
2021/11/16 10:22:42;;;;;;;19.60;11.45;;;;;;;;;;4886179;29;20021;-63
2021/11/16 10:25:18;;;;;;;23.17;11.00;;;;;;;;;;4884419;29;20500;-63
2021/11/16 10:27:45;;;;;;;21.60;11.00;;;;;;;;;;4884915;29;20132;-63
2021/11/16 10:30:17;;;;;;;17.33;10.40;;;;;;;;;;4883282;29;20041;-64
2021/11/16 10:32:46;;;;;;;25.85;10.05;;;;;;;;;;4885053;29;20032;-65
2021/11/16 10:35:16;;;;;;;19.30;10.38;;;;;;;;;;4886160;29;20080;-64
2021/11/16 10:37:51;;;;;;;20.15;10.50;;;;;;;;;;4885805;29;20025;-63
2021/11/16 10:40:18;;;;;;;23.33;11.10;;;;;;;;;;4883763;29;20391;-64
2021/11/16 10:42:45;;;;;;;22.17;11.80;;;;;;;;;;4885924;29;20056;-65
2021/11/16 10:45:19;;;;;;;19.58;11.57;;;;;;;;;;4884126;29;20107;-63
2021/11/16 10:47:46;;;;;;;17.33;10.32;;;;;;;;;;4889235;29;20036;-64
2021/11/16 10:50:15;;;;;;;20.13;10.73;;;;;;;;;;4895738;29;20040;-63
2021/11/16 10:52:41;;;;;;;19.00;10.43;;;;;;;;;;4895520;29;20025;-65
2021/11/16 10:55:09;;;;;;;21.80;11.98;;;;;;;;;;4895445;29;20116;-65
2021/11/16 10:57:55;;;;;;;22.42;11.48;;;;;;;;;;4895352;29;20032;-65
2021/11/16 11:00:31;;;;;;;20.00;9.75;;;;;;;;;;4895638;29;20375;-66
2021/11/16 11:03:11;;;;;;;25.08;12.82;;;;;;;;;;4895804;29;20451;-66
2021/11/16 11:05:37;;;;;;;22.10;12.85;;;;;;;;;;4895767;29;20262;-66
2021/11/16 11:08:04;;;;;;;21.33;12.25;;;;;;;;;;4895731;29;20028;-66
2021/11/16 11:10:48;;;;;;;26.50;12.57;;;;;;;;;;4895416;29;20052;-65
2021/11/16 11:13:19;;;;;;;21.13;11.52;;;;;;;;;;4895722;29;20043;-65
2021/11/16 11:15:45;;;;;;;22.30;11.63;;;;;;;;;;4895222;29;20381;-65
2021/11/16 11:18:12;;;;;;;20.30;11.85;;;;;;;;;;4895041;29;20256;-66
2021/11/16 11:20:39;;;;;;;21.17;11.80;;;;;;;;;;4895290;29;20033;-74
2021/11/16 11:23:23;;;;;;;22.88;12.32;;;;;;;;;;4895457;29;20032;-70
2021/11/16 11:25:51;;;;;;;21.48;11.50;;;;;;;;;;4894962;29;20053;-69
2021/11/16 11:28:39;;;;;;;19.85;12.15;;;;;;;;;;4895104;29;20021;-70
2021/11/16 11:31:23;;;;;;;21.45;12.43;;;;;;;;;;4895171;29;20040;-64
2021/11/16 11:33:49;;;;;;;23.10;12.43;;;;;;;;;;4895247;29;20036;-62
2021/11/16 11:36:20;;;;;;;25.65;12.85;;;;;;;;;;4890528;29;20025;-64
2021/11/16 11:38:47;;;;;;;20.95;12.07;;;;;;;;;;4880994;29;20112;-64
2021/11/16 11:41:14;;;;;;;20.52;11.70;;;;;;;;;;4884551;29;20033;-68
2021/11/16 11:43:40;;;;;;;18.05;10.65;;;;;;;;;;4885457;29;20104;-71
2021/11/16 11:46:06;;;;;;;19.13;10.88;;;;;;;;;;4883916;29;20025;-68
2021/11/16 11:48:32;;;;;;;20.42;12.00;;;;;;;;;;4889841;29;20028;-67
2021/11/16 11:51:05;;;;;;;24.67;12.45;;;;;;;;;;4885433;29;20124;-67
2021/11/16 11:53:32;;;;;;;26.42;14.20;;;;;;;;;;4884114;29;20040;-67
2021/11/16 11:56:09;;;;;;;23.83;13.23;;;;;;;;;;4885137;29;20045;-66
2021/11/16 11:58:37;;;;;;;28.63;14.05;;;;;;;;;;4884529;29;20025;-67
2021/11/16 12:01:06;;;;;;;23.25;13.50;;;;;;;;;;4887996;29;20425;-65
2021/11/16 12:03:33;;;;;;;24.75;13.48;;;;;;;;;;4888926;29;20040;-68
2021/11/16 12:06:00;;;;;;;23.75;13.23;;;;;;;;;;4891291;29;20096;-68
2021/11/16 12:08:26;;;;;;;25.10;12.82;;;;;;;;;;4888284;29;20036;-68
2021/11/16 12:10:53;;;;;;;23.10;13.40;;;;;;;;;;4892799;29;20075;-71
2021/11/16 12:13:23;;;;;;;25.70;14.25;;;;;;;;;;4888223;29;20476;-68
2021/11/16 12:16:01;;;;;;;23.00;13.23;;;;;;;;;;4888642;29;20772;-68
2021/11/16 12:18:39;;;;;;;22.75;13.07;;;;;;;;;;4878868;29;20333;-69
2021/11/16 12:21:06;;;;;;;26.75;13.05;;;;;;;;;;4879918;29;20041;-69
2021/11/16 12:23:43;;;;;;;24.25;14.00;;;;;;;;;;4878711;29;20029;-67
2021/11/16 12:26:10;;;;;;;23.85;14.15;;;;;;;;;;4882533;29;20123;-68
2021/11/16 12:28:37;;;;;;;28.38;15.13;;;;;;;;;;4888281;29;20032;-67
2021/11/16 12:31:04;;;;;;;23.77;13.93;;;;;;;;;;4881105;29;20112;-67
2021/11/16 12:33:47;;;;;;;25.63;14.40;;;;;;;;;;4887227;29;20033;-67
2021/11/16 12:36:14;;;;;;;27.38;14.40;;;;;;;;;;4885800;29;20025;-69
2021/11/16 12:38:43;;;;;;;27.10;14.52;;;;;;;;;;4888388;29;20052;-69
2021/11/16 12:41:27;;;;;;;25.50;13.55;;;;;;;;;;4888781;29;20019;-70
2021/11/16 12:43:58;;;;;;;31.98;16.52;;;;;;;;;;4881652;29;20041;-68
2021/11/16 12:46:26;;;;;;;32.83;17.10;;;;;;;;;;4885876;29;20056;-70
2021/11/16 12:48:55;;;;;;;29.50;17.05;;;;;;;;;;4883857;29;20493;-67
2021/11/16 12:51:21;;;;;;;28.38;15.45;;;;;;;;;;4885651;29;20045;-68
2021/11/16 12:54:07;;;;;;;22.55;13.60;;;;;;;;;;4886239;29;20029;-70
2021/11/16 12:56:45;;;;;;;28.52;15.82;;;;;;;;;;4884681;29;20052;-70
2021/11/16 12:59:12;;;;;;;28.85;15.57;;;;;;;;;;4885181;29;20016;-71
2021/11/16 13:01:41;;;;;;;32.20;15.43;;;;;;;;;;4887445;29;20037;-69
2021/11/16 13:04:07;;;;;;;28.77;15.18;;;;;;;;;;4883671;29;20036;-67
2021/11/16 13:06:34;;;;;;;29.77;16.58;;;;;;;;;;4886750;29;20112;-66
2021/11/16 13:09:01;;;;;;;25.70;13.68;;;;;;;;;;4887640;29;20028;-66
2021/11/16 13:11:38;;;;;;;30.23;14.45;;;;;;;;;;4891361;29;20052;-66
2021/11/16 13:14:04;;;;;;;28.50;15.15;;;;;;;;;;4878507;29;20037;-69
2021/11/16 13:16:30;;;;;;;23.17;12.75;;;;;;;;;;4878485;29;20123;-69
2021/11/16 13:18:57;;;;;;;29.33;15.98;;;;;;;;;;4878200;29;20413;-71
2021/11/16 13:21:24;;;;;;;25.73;14.45;;;;;;;;;;4914393;29;20055;-69
2021/11/16 13:23:55;;;;;;;26.73;14.43;;;;;;;;;;4901992;29;20033;-71
2021/11/16 13:26:21;;;;;;;28.10;16.00;;;;;;;;;;4896570;29;20060;-69
2021/11/16 13:31:23;;;;;;;25.88;15.65;;;;;;;;;;4886067;29;20611;-65
2021/11/16 13:33:57;;;;;;;26.95;15.32;;;;;;;;;;4882405;29;20077;-68
2021/11/16 13:36:30;;;;;;;28.02;15.48;;;;;;;;;;4891293;29;20036;-68
2021/11/16 13:39:08;;;;;;;30.42;15.23;;;;;;;;;;4892712;29;20024;-71
2021/11/16 13:41:53;;;;;;;36.17;17.02;;;;;;;;;;4892269;29;20477;-68
2021/11/16 13:44:19;;;;;;;29.48;16.25;;;;;;;;;;4892193;29;20036;-68
2021/11/16 13:46:51;;;;;;;31.42;15.93;;;;;;;;;;4879989;29;20090;-67
2021/11/16 13:49:21;;;;;;;30.20;15.33;;;;;;;;;;4880333;29;20494;-68
2021/11/16 13:51:47;;;;;;;35.33;16.48;;;;;;;;;;4880797;29;20033;-66
2021/11/16 13:54:14;;;;;;;30.15;16.63;;;;;;;;;;4885299;29;20439;-66
2021/11/16 13:56:40;;;;;;;27.25;16.42;;;;;;;;;;4891029;29;20100;-64
2021/11/16 13:59:13;;;;;;;32.30;16.55;;;;;;;;;;4891755;29;20029;-67
2021/11/16 14:01:39;;;;;;;37.40;17.05;;;;;;;;;;4891599;29;20025;-65
2021/11/16 14:04:13;;;;;;;31.00;17.17;;;;;;;;;;4894541;29;20119;-65
2021/11/16 14:06:39;;;;;;;36.95;18.00;;;;;;;;;;4885556;29;20701;-64
2021/11/16 14:09:18;;;;;;;32.80;17.00;;;;;;;;;;4884784;29;20039;-65
2021/11/16 14:11:48;;;;;;;27.90;14.88;;;;;;;;;;4886137;29;20040;-66
2021/11/16 14:14:18;;;;;;;31.38;17.58;;;;;;;;;;4886032;29;20758;-67
2021/11/16 14:16:44;;;;;;;30.80;16.73;;;;;;;;;;4883736;29;20055;-67
2021/11/16 14:19:11;;;;;;;31.55;16.17;;;;;;;;;;4885599;29;20032;-68
2021/11/16 14:21:38;;;;;;;31.27;16.35;;;;;;;;;;4884231;29;20104;-68
2021/11/16 14:24:05;;;;;;;27.58;15.98;;;;;;;;;;4886080;29;20036;-67
2021/11/16 14:26:32;;;;;;;29.83;15.93;;;;;;;;;;4885849;29;20053;-68
2021/11/16 14:28:59;;;;;;;29.65;16.80;;;;;;;;;;4884526;29;20040;-68
2021/11/16 14:31:26;;;;;;;32.33;17.00;;;;;;;;;;4886181;29;20028;-66
2021/11/16 14:33:52;;;;;;;36.13;18.20;;;;;;;;;;4886223;29;20040;-68
2021/11/16 14:36:31;;;;;;;36.90;18.88;;;;;;;;;;4884905;29;20025;-67
2021/11/16 14:39:03;;;;;;;34.60;19.73;;;;;;;;;;4884113;29;20700;-68
2021/11/16 14:41:29;;;;;;;34.13;17.85;;;;;;;;;;4884873;29;20025;-69
2021/11/16 14:44:04;;;;;;;36.28;18.70;;;;;;;;;;4876909;29;20029;-68
2021/11/16 14:46:31;;;;;;;43.50;19.85;;;;;;;;;;4877113;29;20033;-67
2021/11/16 14:48:57;;;;;;;41.45;20.17;;;;;;;;;;4876955;29;20056;-63
2021/11/16 14:51:35;;;;;;;36.40;20.27;;;;;;;;;;4878127;29;20063;-66
2021/11/16 14:54:02;;;;;;;42.42;21.17;;;;;;;;;;4888865;29;20029;-71
2021/11/16 14:56:31;;;;;;;38.05;19.88;;;;;;;;;;4879067;29;20061;-69
2021/11/16 14:59:01;;;;;;;37.17;20.35;;;;;;;;;;4886582;29;20032;-68
2021/11/16 15:01:31;;;;;;;35.33;19.55;;;;;;;;;;4886299;29;20481;-68
2021/11/16 15:03:59;;;;;;;42.85;19.67;;;;;;;;;;4884193;29;20081;-67
2021/11/16 15:06:27;;;;;;;37.40;20.10;;;;;;;;;;4892755;29;20388;-67
2021/11/16 15:09:03;;;;;;;34.22;19.58;;;;;;;;;;4888083;29;20092;-68
2021/11/16 15:11:31;;;;;;;39.47;21.20;;;;;;;;;;4885306;29;20446;-69
2021/11/16 15:14:08;;;;;;;40.97;21.73;;;;;;;;;;4884835;29;20566;-68
2021/11/16 15:16:39;;;;;;;42.30;22.33;;;;;;;;;;4884733;29;20548;-69
2021/11/16 15:19:12;;;;;;;39.17;21.02;;;;;;;;;;4884966;29;20443;-68
2021/11/16 15:21:40;;;;;;;;;;;;;;;;;;4884071;29;20025;-69
2021/11/16 15:24:29;;;;;;;44.97;22.63;;;;;;;;;;4883716;29;19994;-68
2021/11/16 15:26:55;;;;;;;46.40;22.70;;;;;;;;;;4876284;29;20065;-69
2021/11/16 15:29:21;;;;;;;43.45;22.67;;;;;;;;;;4876452;29;20033;-69
2021/11/16 15:31:53;;;;;;;43.28;23.88;;;;;;;;;;4883701;29;20400;-68
2021/11/16 15:34:21;;;;;;;;;;;;;;;;;;4889409;29;20017;-66
2021/11/16 15:36:47;;;;;;;42.08;23.10;;;;;;;;;;4888832;29;19983;-68
2021/11/16 15:39:15;;;;;;;47.17;24.20;;;;;;;;;;4888402;29;20021;-69
2021/11/16 15:42:03;;;;;;;50.22;26.05;;;;;;;;;;4882700;29;20044;-69
2021/11/16 15:44:52;;;;;;;49.08;25.75;;;;;;;;;;4880077;29;20089;-68
2021/11/16 15:50:34;;;;;;;48.40;25.23;;;;;;;;;;4880263;29;20441;-70
2021/11/16 15:58:34;;;;;;;54.83;27.00;;;;;;;;;;4879441;29;20056;-69
2021/11/16 16:01:11;;;;;;;46.50;25.60;;;;;;;;;;4879910;29;20144;-68
2021/11/16 16:03:52;;;;;;;48.40;26.30;;;;;;;;;;4879806;29;20028;-70
2021/11/16 16:06:21;;;;;;;48.08;25.63;;;;;;;;;;4879616;29;20473;-70
2021/11/16 16:08:51;;;;;;;49.88;26.15;;;;;;;;;;4879689;29;20025;-70
2021/11/16 16:11:27;;;;;;;51.00;27.67;;;;;;;;;;4879652;29;20104;-68
2021/11/16 16:13:57;;;;;;;54.45;26.48;;;;;;;;;;4879776;29;20060;-66
2021/11/16 16:16:31;;;;;;;61.53;29.73;;;;;;;;;;4878767;29;20052;-66
2021/11/16 16:18:58;;;;;;;57.40;29.42;;;;;;;;;;4879368;29;20029;-66
2021/11/16 16:21:26;;;;;;;67.90;30.50;;;;;;;;;;4879205;29;20056;-69
2021/11/16 16:23:55;;;;;;;57.63;26.63;;;;;;;;;;4879640;29;20229;-70
2021/11/16 16:26:22;;;;;;;73.95;34.38;;;;;;;;;;4879068;29;20068;-69
2021/11/16 16:28:52;;;;;;;59.65;29.95;;;;;;;;;;4878711;29;20025;-68
2021/11/16 16:31:20;;;;;;;62.72;30.83;;;;;;;;;;4879321;29;20501;-68
2021/11/16 16:33:46;;;;;;;59.45;30.55;;;;;;;;;;4879319;29;20025;-69
2021/11/16 16:36:12;;;;;;;55.58;29.10;;;;;;;;;;4890222;29;20029;-68
2021/11/16 16:38:39;;;;;;;54.47;25.92;;;;;;;;;;4898220;29;20029;-69
2021/11/16 16:41:21;;;;;;;56.95;27.77;;;;;;;;;;4897283;29;20036;-71
2021/11/16 16:43:55;;;;;;;64.97;30.98;;;;;;;;;;4896517;29;20554;-65
2021/11/16 16:46:22;;;;;;;62.10;31.42;;;;;;;;;;4884565;29;20043;-67
2021/11/16 16:48:49;;;;;;;62.03;30.40;;;;;;;;;;4886281;29;20031;-69
2021/11/16 16:51:15;;;;;;;64.75;31.08;;;;;;;;;;4887343;29;20037;-67
2021/11/16 16:53:42;;;;;;;59.45;29.80;;;;;;;;;;4886798;29;20040;-67
2021/11/16 16:56:09;;;;;;;60.00;29.40;;;;;;;;;;4885899;29;20481;-64
2021/11/16 16:58:36;;;;;;;66.40;30.30;;;;;;;;;;4887107;29;20032;-64
2021/11/16 17:01:03;;;;;;;71.10;30.13;;;;;;;;;;4886538;29;20029;-64
2021/11/16 17:03:30;;;;;;;56.05;29.58;;;;;;;;;;4885374;29;20016;-67
2021/11/16 17:05:56;;;;;;;54.40;27.98;;;;;;;;;;4886212;29;20036;-67
2021/11/16 17:08:22;;;;;;;59.90;30.27;;;;;;;;;;4878442;29;20120;-67
2021/11/16 17:10:48;;;;;;;61.45;30.70;;;;;;;;;;4878404;29;20033;-67
2021/11/16 17:13:15;;;;;;;62.08;30.73;;;;;;;;;;4879474;29;20025;-65
2021/11/16 17:15:43;;;;;;;64.50;31.20;;;;;;;;;;4896805;29;20025;-65
2021/11/16 17:18:09;;;;;;;57.92;28.92;;;;;;;;;;4893631;29;20035;-64
2021/11/16 17:20:35;;;;;;;63.80;30.88;;;;;;;;;;4888541;29;20032;-63
2021/11/16 17:23:02;;;;;;;66.25;31.23;;;;;;;;;;4887950;29;20028;-66
2021/11/16 17:25:29;;;;;;;64.30;32.63;;;;;;;;;;4889823;29;20048;-66
2021/11/16 17:27:55;;;;;;;66.72;32.38;;;;;;;;;;4896157;29;20060;-65
2021/11/16 17:30:21;;;;;;;57.90;31.75;;;;;;;;;;4895870;29;20021;-67
2021/11/16 17:32:49;;;;;;;64.47;32.67;;;;;;;;;;4896895;29;20527;-65
2021/11/16 17:35:15;;;;;;;59.72;30.98;;;;;;;;;;4896574;29;20071;-71
2021/11/16 17:37:41;;;;;;;58.50;30.95;;;;;;;;;;4896484;29;20048;-66
2021/11/16 17:40:08;;;;;;;55.03;28.92;;;;;;;;;;4896645;29;20033;-69
2021/11/16 17:42:34;;;;;;;56.78;30.40;;;;;;;;;;4896874;29;20385;-69
2021/11/16 17:45:01;;;;;;;55.17;30.05;;;;;;;;;;4885096;29;20041;-71
2021/11/16 17:47:27;;;;;;;61.78;29.50;;;;;;;;;;4878343;29;20040;-69
2021/11/16 17:49:53;;;;;;;56.10;28.67;;;;;;;;;;4878087;29;20366;-74
2021/11/16 17:52:19;;;;;;;57.63;30.42;;;;;;;;;;4877927;29;20035;-71
2021/11/16 17:54:45;;;;;;;53.03;28.10;;;;;;;;;;4877002;29;20048;-68
2021/11/16 17:57:11;;;;;;;55.75;26.92;;;;;;;;;;4878027;29;20033;-69
2021/11/16 17:59:37;;;;;;;52.95;28.77;;;;;;;;;;4877644;29;20029;-67
2021/11/16 18:02:05;;;;;;;51.05;28.05;;;;;;;;;;4877681;29;20493;-69
2021/11/16 18:09:49;;;;;;;54.47;27.63;;;;;;;;;;4890565;29;20056;-70
2021/11/16 18:12:16;;;;;;;57.03;27.95;;;;;;;;;;4877330;29;20025;-69
2021/11/16 18:14:42;;;;;;;52.90;26.75;;;;;;;;;;4877298;29;20036;-67
2021/11/16 18:17:08;;;;;;;54.92;27.90;;;;;;;;;;4877190;29;20021;-70
2021/11/16 18:19:34;;;;;;;54.35;28.88;;;;;;;;;;4876952;29;20116;-69
2021/11/16 18:22:00;;;;;;;67.63;29.60;;;;;;;;;;4877238;29;20108;-68
2021/11/16 18:24:26;;;;;;;56.95;28.25;;;;;;;;;;4877290;29;20025;-68
2021/11/16 18:26:54;;;;;;;57.55;29.17;;;;;;;;;;4877073;29;20052;-66
2021/11/16 18:29:21;;;;;;;51.20;26.95;;;;;;;;;;4877091;29;20064;-68
2021/11/16 18:31:48;;;;;;;54.92;28.52;;;;;;;;;;4877215;29;20025;-66
2021/11/16 18:34:14;;;;;;;59.83;29.35;;;;;;;;;;4877467;29;20117;-67
2021/11/16 18:36:46;;;;;;;58.33;29.58;;;;;;;;;;4876939;29;20033;-69
2021/11/16 18:39:16;;;;;;;58.73;29.53;;;;;;;;;;4887132;29;20061;-68
2021/11/16 18:41:48;;;;;;;60.00;28.42;;;;;;;;;;4885481;29;20784;-69
2021/11/16 18:44:30;;;;;;;63.08;30.98;;;;;;;;;;4882476;29;20044;-64
2021/11/16 18:47:03;;;;;;;59.13;30.42;;;;;;;;;;4881315;29;20048;-67
2021/11/16 18:49:31;;;;;;;54.65;27.63;;;;;;;;;;4883995;29;20029;-71
2021/11/16 18:51:58;;;;;;;56.28;27.40;;;;;;;;;;4884775;29;20021;-67
2021/11/16 18:54:24;;;;;;;53.13;28.48;;;;;;;;;;4884428;29;20028;-67
2021/11/16 18:57:23;;;;;;;54.40;27.67;;;;;;;;;;4886188;29;20028;-68
2021/11/16 18:59:42;;;;;;;;;;;;;;;;;;4886436;29;20047;-68
2021/11/16 19:02:09;;;;;;;49.85;25.63;;;;;;;;;;4885863;29;19915;-68
2021/11/16 19:04:36;;;;;;;54.17;26.48;;;;;;;;;;4884374;29;20035;-71
2021/11/16 19:07:03;;;;;;;50.15;26.52;;;;;;;;;;4893503;29;20022;-65
2021/11/16 19:09:31;;;;;;;54.45;27.75;;;;;;;;;;4890729;29;20062;-64
2021/11/16 19:11:57;;;;;;;50.20;26.45;;;;;;;;;;4888188;29;20481;-70
2021/11/16 19:14:24;;;;;;;46.22;25.10;;;;;;;;;;4899297;29;20433;-66
2021/11/16 19:16:53;;;;;;;43.25;24.95;;;;;;;;;;4899282;29;20028;-68
2021/11/16 19:19:20;;;;;;;46.92;26.23;;;;;;;;;;4899078;29;20025;-68
2021/11/16 19:21:50;;;;;;;51.78;27.40;;;;;;;;;;4899097;29;20044;-66
2021/11/16 19:24:21;;;;;;;50.63;25.40;;;;;;;;;;4899271;29;20099;-67
2021/11/16 19:26:49;;;;;;;47.00;25.80;;;;;;;;;;4898684;29;20060;-65
2021/11/16 19:29:19;;;;;;;48.50;24.77;;;;;;;;;;4900767;29;20032;-66
2021/11/16 19:31:50;;;;;;;52.33;26.13;;;;;;;;;;4901609;29;20033;-66
2021/11/16 19:34:17;;;;;;;46.20;25.33;;;;;;;;;;4894793;29;20027;-66
2021/11/16 19:36:44;;;;;;;49.28;26.38;;;;;;;;;;4896248;29;20062;-67
2021/11/16 19:39:23;;;;;;;55.75;28.48;;;;;;;;;;4883252;29;20628;-68
2021/11/16 19:41:50;;;;;;;59.25;27.77;;;;;;;;;;4879885;29;20033;-68
2021/11/16 19:44:19;;;;;;;50.00;26.38;;;;;;;;;;4880183;29;20037;-66
2021/11/16 19:46:45;;;;;;;51.15;27.75;;;;;;;;;;4879863;29;20041;-66
2021/11/16 19:49:12;;;;;;;50.22;26.70;;;;;;;;;;4879614;29;20470;-67
2021/11/16 19:51:38;;;;;;;55.00;27.20;;;;;;;;;;4879949;29;20120;-69
2021/11/16 19:54:05;;;;;;;49.38;25.90;;;;;;;;;;4880287;29;20064;-67
2021/11/16 19:56:31;;;;;;;47.88;26.40;;;;;;;;;;4879924;29;20116;-69
2021/11/16 19:58:58;;;;;;;51.25;26.83;;;;;;;;;;4880002;29;20113;-67
2021/11/16 20:01:24;;;;;;;48.92;25.92;;;;;;;;;;4879524;29;20816;-66
2021/11/16 20:03:51;;;;;;;52.35;25.25;;;;;;;;;;4879934;29;20025;-66
2021/11/16 20:06:17;;;;;;;53.65;26.90;;;;;;;;;;4879834;29;20025;-68
2021/11/16 20:08:44;;;;;;;52.65;26.35;;;;;;;;;;4879517;29;20552;-68
2021/11/16 20:11:12;;;;;;;52.72;26.80;;;;;;;;;;4879220;29;20100;-68
2021/11/16 20:13:39;;;;;;;51.13;27.65;;;;;;;;;;4879484;29;20025;-69
2021/11/16 20:16:05;;;;;;;50.85;27.48;;;;;;;;;;4879399;29;20445;-67
2021/11/16 20:18:31;;;;;;;52.40;27.17;;;;;;;;;;4878239;29;20028;-70
2021/11/16 20:20:58;;;;;;;55.40;26.75;;;;;;;;;;4879159;29;20498;-69
2021/11/16 20:23:25;;;;;;;53.78;26.60;;;;;;;;;;4879478;29;20041;-69
2021/11/16 20:25:51;;;;;;;48.45;27.30;;;;;;;;;;4878678;29;20044;-69
2021/11/16 20:28:25;;;;;;;53.47;26.25;;;;;;;;;;4879248;29;20149;-69
2021/11/16 20:30:57;;;;;;;49.97;25.75;;;;;;;;;;4879249;29;20025;-68
2021/11/16 20:33:24;;;;;;;48.85;26.50;;;;;;;;;;4879303;29;20029;-70
2021/11/16 20:35:51;;;;;;;48.13;25.70;;;;;;;;;;4879425;29;20040;-69
2021/11/16 20:38:24;;;;;;;53.92;26.90;;;;;;;;;;4878809;29;20155;-69
2021/11/16 20:41:06;;;;;;;53.38;26.40;;;;;;;;;;4878990;29;20124;-68
2021/11/16 20:43:53;;;;;;;46.78;26.40;;;;;;;;;;4879479;29;20166;-69
2021/11/16 20:59:56;;;;;;;53.50;27.55;;;;;;;;;;4878660;29;20133;-68
2021/11/16 21:02:23;;;;;;;57.60;29.08;;;;;;;;;;4878467;29;20037;-70
2021/11/16 21:04:49;;;;;;;59.33;29.70;;;;;;;;;;4878302;29;20084;-70
2021/11/16 21:07:15;;;;;;;60.58;30.17;;;;;;;;;;4878592;29;20088;-70
2021/11/16 21:09:41;;;;;;;58.33;30.02;;;;;;;;;;4878553;29;20114;-69
2021/11/16 21:12:07;;;;;;;57.65;30.10;;;;;;;;;;4878595;29;20044;-71
2021/11/16 21:14:35;;;;;;;56.90;28.73;;;;;;;;;;4877212;29;20426;-70
2021/11/16 21:17:03;;;;;;;54.78;28.30;;;;;;;;;;4878496;29;20037;-70
2021/11/16 21:19:29;;;;;;;53.83;27.92;;;;;;;;;;4878321;29;20021;-69
2021/11/16 21:21:55;;;;;;;49.60;26.95;;;;;;;;;;4878640;29;20037;-69
2021/11/16 21:24:21;;;;;;;53.72;26.90;;;;;;;;;;4878598;29;20108;-69
2021/11/16 21:26:48;;;;;;;50.72;25.60;;;;;;;;;;4878124;29;20057;-68
2021/11/16 21:29:15;;;;;;;50.60;25.63;;;;;;;;;;4877152;29;20032;-70
2021/11/16 21:31:42;;;;;;;48.85;25.25;;;;;;;;;;4878355;29;20084;-69